sensor_id;sensor_type;location;lat;lon;timestamp;pressure;altitude;pressure_sealevel;temperature;humidity
16451;BME280;12243;42.708;23.310;2023-01-28T00:01:06;94392.44;;;0.85;100.00
16451;BME280;12243;42.708;23.310;2023-01-28T00:03:33;94384.84;;;0.84;100.00
16451;BME280;12243;42.708;23.310;2023-01-28T00:06:01;94390.13;;;0.81;100.00
16451;BME280;12243;42.708;23.310;2023-01-28T00:08:28;94397.72;;;0.82;100.00
16451;BME280;12243;42.708;23.310;2023-01-28T00:10:57;94395.44;;;0.78;100.00
16451;BME280;12243;42.708;23.310;2023-01-28T00:13:26;94402.78;;;0.84;100.00
16451;BME280;12243;42.708;23.310;2023-01-28T00:15:54;94403.19;;;0.76;100.00
16451;BME280;12243;42.708;23.310;2023-01-28T00:18:21;94411.13;;;0.87;100.00
16451;BME280;12243;42.708;23.310;2023-01-28T00:20:59;94412.03;;;0.86;100.00
16451;BME280;12243;42.708;23.310;2023-01-28T00:23:27;94406.34;;;0.81;100.00
16451;BME280;12243;42.708;23.310;2023-01-28T00:25:57;94406.81;;;0.88;100.00
16451;BME280;12243;42.708;23.310;2023-01-28T00:28:26;94408.75;;;0.84;100.00
16451;BME280;12243;42.708;23.310;2023-01-28T00:30:53;94414.59;;;0.86;100.00
16451;BME280;12243;42.708;23.310;2023-01-28T00:33:19;94420.53;;;0.87;100.00
16451;BME280;12243;42.708;23.310;2023-01-28T00:35:46;94423.38;;;0.82;100.00
16451;BME280;12243;42.708;23.310;2023-01-28T00:38:13;94431.47;;;0.75;100.00
16451;BME280;12243;42.708;23.310;2023-01-28T00:40:40;94420.56;;;0.71;100.00
16451;BME280;12243;42.708;23.310;2023-01-28T00:43:07;94420.41;;;0.74;100.00
16451;BME280;12243;42.708;23.310;2023-01-28T00:45:36;94421.13;;;0.76;100.00
16451;BME280;12243;42.708;23.310;2023-01-28T00:48:04;94425.44;;;0.76;100.00
16451;BME280;12243;42.708;23.310;2023-01-28T00:50:31;94423.69;;;0.76;100.00
16451;BME280;12243;42.708;23.310;2023-01-28T00:52:58;94428.50;;;0.82;100.00
16451;BME280;12243;42.708;23.310;2023-01-28T00:55:24;94426.31;;;0.90;100.00
16451;BME280;12243;42.708;23.310;2023-01-28T00:57:52;94429.97;;;0.86;100.00
16451;BME280;12243;42.708;23.310;2023-01-28T01:00:19;94433.44;;;0.85;100.00
16451;BME280;12243;42.708;23.310;2023-01-28T01:02:51;94428.66;;;0.79;100.00
16451;BME280;12243;42.708;23.310;2023-01-28T01:05:18;94429.16;;;0.86;100.00
16451;BME280;12243;42.708;23.310;2023-01-28T01:07:45;94428.31;;;0.85;100.00
16451;BME280;12243;42.708;23.310;2023-01-28T01:10:14;94428.41;;;0.84;100.00
16451;BME280;12243;42.708;23.310;2023-01-28T01:12:42;94418.41;;;0.79;100.00
16451;BME280;12243;42.708;23.310;2023-01-28T01:15:09;94426.69;;;0.68;100.00
16451;BME280;12243;42.708;23.310;2023-01-28T01:17:36;94437.25;;;0.78;100.00
16451;BME280;12243;42.708;23.310;2023-01-28T01:20:10;94430.28;;;0.80;100.00
16451;BME280;12243;42.708;23.310;2023-01-28T01:22:37;94432.47;;;0.72;100.00
16451;BME280;12243;42.708;23.310;2023-01-28T01:25:05;94433.72;;;0.65;100.00
16451;BME280;12243;42.708;23.310;2023-01-28T01:27:32;94428.97;;;0.73;100.00
16451;BME280;12243;42.708;23.310;2023-01-28T01:29:59;94426.34;;;0.75;100.00
16451;BME280;12243;42.708;23.310;2023-01-28T01:32:28;94435.63;;;0.77;100.00
16451;BME280;12243;42.708;23.310;2023-01-28T01:34:55;94430.56;;;0.76;100.00
16451;BME280;12243;42.708;23.310;2023-01-28T01:37:25;94439.81;;;0.78;100.00
16451;BME280;12243;42.708;23.310;2023-01-28T01:39:52;94442.72;;;0.72;100.00
16451;BME280;12243;42.708;23.310;2023-01-28T01:42:19;94442.88;;;0.85;100.00
16451;BME280;12243;42.708;23.310;2023-01-28T01:44:55;94433.78;;;0.95;100.00
16451;BME280;12243;42.708;23.310;2023-01-28T01:47:24;94437.66;;;0.86;100.00
16451;BME280;12243;42.708;23.310;2023-01-28T01:49:54;94443.31;;;0.77;100.00
16451;BME280;12243;42.708;23.310;2023-01-28T01:52:27;94442.88;;;0.85;100.00
16451;BME280;12243;42.708;23.310;2023-01-28T01:54:58;94443.03;;;0.82;100.00
16451;BME280;12243;42.708;23.310;2023-01-28T01:57:29;94437.81;;;0.83;100.00
16451;BME280;12243;42.708;23.310;2023-01-28T01:59:57;94444.19;;;0.76;100.00
16451;BME280;12243;42.708;23.310;2023-01-28T02:02:40;94443.88;;;0.82;100.00
16451;BME280;12243;42.708;23.310;2023-01-28T02:05:11;94439.56;;;0.83;100.00
16451;BME280;12243;42.708;23.310;2023-01-28T02:07:40;94450.63;;;0.83;100.00
16451;BME280;12243;42.708;23.310;2023-01-28T02:10:10;94452.97;;;0.72;100.00
16451;BME280;12243;42.708;23.310;2023-01-28T02:12:39;94454.81;;;0.70;100.00
16451;BME280;12243;42.708;23.310;2023-01-28T02:15:12;94457.75;;;0.78;100.00
16451;BME280;12243;42.708;23.310;2023-01-28T02:17:40;94453.28;;;0.66;100.00
16451;BME280;12243;42.708;23.310;2023-01-28T02:20:10;94458.75;;;0.60;100.00
16451;BME280;12243;42.708;23.310;2023-01-28T02:26:12;94461.88;;;0.65;100.00
16451;BME280;12243;42.708;23.310;2023-01-28T02:28:47;94456.94;;;0.62;100.00
16451;BME280;12243;42.708;23.310;2023-01-28T02:31:21;94457.38;;;0.70;100.00
16451;BME280;12243;42.708;23.310;2023-01-28T02:33:53;94462.22;;;0.75;100.00
16451;BME280;12243;42.708;23.310;2023-01-28T02:36:27;94457.44;;;0.68;100.00
16451;BME280;12243;42.708;23.310;2023-01-28T02:39:00;94460.56;;;0.58;100.00
16451;BME280;12243;42.708;23.310;2023-01-28T02:41:31;94458.59;;;0.63;100.00
16451;BME280;12243;42.708;23.310;2023-01-28T02:44:02;94459.91;;;0.70;100.00
16451;BME280;12243;42.708;23.310;2023-01-28T02:46:34;94460.25;;;0.64;100.00
16451;BME280;12243;42.708;23.310;2023-01-28T02:49:22;94463.88;;;0.60;100.00
16451;BME280;12243;42.708;23.310;2023-01-28T02:52:03;94463.72;;;0.63;100.00
16451;BME280;12243;42.708;23.310;2023-01-28T02:54:39;94459.91;;;0.70;100.00
16451;BME280;12243;42.708;23.310;2023-01-28T02:57:16;94463.38;;;0.69;100.00
16451;BME280;12243;42.708;23.310;2023-01-28T02:59:50;94467.59;;;0.54;100.00
16451;BME280;12243;42.708;23.310;2023-01-28T03:02:27;94468.00;;;0.46;100.00
16451;BME280;12243;42.708;23.310;2023-01-28T03:05:01;94470.06;;;0.56;100.00
16451;BME280;12243;42.708;23.310;2023-01-28T03:07:33;94469.56;;;0.65;100.00
16451;BME280;12243;42.708;23.310;2023-01-28T03:10:04;94469.75;;;0.62;100.00
16451;BME280;12243;42.708;23.310;2023-01-28T03:12:34;94465.69;;;0.58;100.00
16451;BME280;12243;42.708;23.310;2023-01-28T03:15:25;94465.28;;;0.50;100.00
16451;BME280;12243;42.708;23.310;2023-01-28T03:18:14;94466.38;;;0.45;100.00
16451;BME280;12243;42.708;23.310;2023-01-28T03:21:03;94473.44;;;0.40;100.00
16451;BME280;12243;42.708;23.310;2023-01-28T03:23:53;94474.53;;;0.36;100.00
16451;BME280;12243;42.708;23.310;2023-01-28T03:26:43;94479.53;;;0.38;100.00
16451;BME280;12243;42.708;23.310;2023-01-28T03:29:32;94474.94;;;0.44;100.00
16451;BME280;12243;42.708;23.310;2023-01-28T03:32:21;94482.34;;;0.33;100.00
16451;BME280;12243;42.708;23.310;2023-01-28T03:35:08;94482.34;;;0.33;100.00
16451;BME280;12243;42.708;23.310;2023-01-28T03:37:54;94476.47;;;0.31;100.00
16451;BME280;12243;42.708;23.310;2023-01-28T03:40:25;94480.88;;;0.29;100.00
16451;BME280;12243;42.708;23.310;2023-01-28T03:42:52;94487.78;;;0.27;100.00
16451;BME280;12243;42.708;23.310;2023-01-28T03:45:39;94481.34;;;0.20;100.00
16451;BME280;12243;42.708;23.310;2023-01-28T03:48:07;94479.19;;;0.12;100.00
16451;BME280;12243;42.708;23.310;2023-01-28T03:50:34;94488.59;;;0.12;100.00
16451;BME280;12243;42.708;23.310;2023-01-28T03:53:01;94488.59;;;0.12;100.00
16451;BME280;12243;42.708;23.310;2023-01-28T03:55:48;94490.09;;;0.16;100.00
16451;BME280;12243;42.708;23.310;2023-01-28T03:58:16;94492.81;;;0.13;100.00
16451;BME280;12243;42.708;23.310;2023-01-28T04:00:44;94487.63;;;0.14;100.00
16451;BME280;12243;42.708;23.310;2023-01-28T04:03:15;94494.91;;;0.22;100.00
16451;BME280;12243;42.708;23.310;2023-01-28T04:05:57;94503.66;;;0.18;100.00
16451;BME280;12243;42.708;23.310;2023-01-28T04:08:27;94495.38;;;0.13;100.00
16451;BME280;12243;42.708;23.310;2023-01-28T04:11:23;94490.22;;;-0.03;100.00
16451;BME280;12243;42.708;23.310;2023-01-28T04:13:51;94502.31;;;0.11;100.00
16451;BME280;12243;42.708;23.310;2023-01-28T04:16:20;94503.34;;;0.07;100.00
16451;BME280;12243;42.708;23.310;2023-01-28T04:18:48;94506.16;;;0.02;100.00
16451;BME280;12243;42.708;23.310;2023-01-28T04:21:16;94502.91;;;-0.02;100.00
16451;BME280;12243;42.708;23.310;2023-01-28T04:23:43;94506.41;;;-0.03;100.00
16451;BME280;12243;42.708;23.310;2023-01-28T04:26:12;94510.13;;;0.08;100.00
16451;BME280;12243;42.708;23.310;2023-01-28T04:28:39;94512.84;;;0.05;100.00
16451;BME280;12243;42.708;23.310;2023-01-28T04:31:06;94509.31;;;0.07;100.00
16451;BME280;12243;42.708;23.310;2023-01-28T04:33:53;94515.41;;;0.05;100.00
16451;BME280;12243;42.708;23.310;2023-01-28T04:36:43;94520.69;;;0.02;100.00
16451;BME280;12243;42.708;23.310;2023-01-28T04:39:29;94526.72;;;0.01;100.00
16451;BME280;12243;42.708;23.310;2023-01-28T04:42:19;94524.88;;;0.03;100.00
16451;BME280;12243;42.708;23.310;2023-01-28T04:45:04;94525.81;;;0.02;100.00
16451;BME280;12243;42.708;23.310;2023-01-28T04:47:48;94540.53;;;-0.04;100.00
16451;BME280;12243;42.708;23.310;2023-01-28T04:50:26;94537.56;;;-0.12;100.00
16451;BME280;12243;42.708;23.310;2023-01-28T04:53:08;94543.06;;;-0.02;100.00
16451;BME280;12243;42.708;23.310;2023-01-28T04:55:49;94541.94;;;0.04;100.00
16451;BME280;12243;42.708;23.310;2023-01-28T04:58:16;94544.78;;;-0.03;100.00
16451;BME280;12243;42.708;23.310;2023-01-28T05:00:44;94542.97;;;-0.01;100.00
16451;BME280;12243;42.708;23.310;2023-01-28T05:03:14;94539.78;;;0.12;100.00
16451;BME280;12243;42.708;23.310;2023-01-28T05:05:42;94543.94;;;0.14;100.00
16451;BME280;12243;42.708;23.310;2023-01-28T05:08:19;94547.19;;;0.18;100.00
16451;BME280;12243;42.708;23.310;2023-01-28T05:10:46;94550.47;;;0.20;100.00
16451;BME280;12243;42.708;23.310;2023-01-28T05:13:14;94551.97;;;0.07;100.00
16451;BME280;12243;42.708;23.310;2023-01-28T05:15:41;94558.78;;;0.08;100.00
16451;BME280;12243;42.708;23.310;2023-01-28T05:18:07;94556.38;;;0.05;100.00
16451;BME280;12243;42.708;23.310;2023-01-28T05:20:42;94557.28;;;0.04;100.00
16451;BME280;12243;42.708;23.310;2023-01-28T05:23:09;94566.47;;;0.08;100.00
16451;BME280;12243;42.708;23.310;2023-01-28T05:26:02;94575.19;;;0.21;100.00
16451;BME280;12243;42.708;23.310;2023-01-28T05:28:29;94565.78;;;0.21;100.00
16451;BME280;12243;42.708;23.310;2023-01-28T05:31:01;94566.81;;;0.17;100.00
16451;BME280;12243;42.708;23.310;2023-01-28T05:33:29;94568.25;;;0.23;100.00
16451;BME280;12243;42.708;23.310;2023-01-28T05:35:57;94571.78;;;0.20;100.00
16451;BME280;12243;42.708;23.310;2023-01-28T05:38:24;94567.50;;;0.21;100.00
16451;BME280;12243;42.708;23.310;2023-01-28T05:40:51;94574.56;;;0.16;100.00
16451;BME280;12243;42.708;23.310;2023-01-28T05:43:18;94577.97;;;0.16;100.00
16451;BME280;12243;42.708;23.310;2023-01-28T05:45:52;94577.13;;;0.16;100.00
16451;BME280;12243;42.708;23.310;2023-01-28T05:48:34;94580.22;;;0.05;100.00
16451;BME280;12243;42.708;23.310;2023-01-28T05:51:31;94574.13;;;0.08;100.00
16451;BME280;12243;42.708;23.310;2023-01-28T05:53:58;94576.84;;;0.05;100.00
16451;BME280;12243;42.708;23.310;2023-01-28T05:56:25;94575.94;;;0.06;100.00
16451;BME280;12243;42.708;23.310;2023-01-28T05:58:51;94587.38;;;0.16;100.00
16451;BME280;12243;42.708;23.310;2023-01-28T06:01:18;94594.00;;;0.20;100.00
16451;BME280;12243;42.708;23.310;2023-01-28T06:03:50;94597.16;;;0.25;100.00
16451;BME280;12243;42.708;23.310;2023-01-28T06:06:17;94600.78;;;0.21;100.00
16451;BME280;12243;42.708;23.310;2023-01-28T06:08:47;94599.25;;;0.17;100.00
16451;BME280;12243;42.708;23.310;2023-01-28T06:11:20;94607.03;;;0.15;100.00
16451;BME280;12243;42.708;23.310;2023-01-28T06:13:48;94613.06;;;0.14;100.00
16451;BME280;12243;42.708;23.310;2023-01-28T06:16:42;94610.88;;;0.07;100.00
16451;BME280;12243;42.708;23.310;2023-01-28T06:19:26;94614.78;;;0.14;100.00
16451;BME280;12243;42.708;23.310;2023-01-28T06:21:54;94621.09;;;0.24;100.00
16451;BME280;12243;42.708;23.310;2023-01-28T06:24:22;94630.91;;;0.33;100.00
16451;BME280;12243;42.708;23.310;2023-01-28T06:26:49;94625.91;;;0.30;100.00
16451;BME280;12243;42.708;23.310;2023-01-28T06:29:17;94625.41;;;0.23;100.00
16451;BME280;12243;42.708;23.310;2023-01-28T06:31:44;94633.47;;;0.16;100.00
16451;BME280;12243;42.708;23.310;2023-01-28T06:34:10;94639.56;;;0.13;100.00
16451;BME280;12243;42.708;23.310;2023-01-28T06:36:37;94631.81;;;0.15;100.00
16451;BME280;12243;42.708;23.310;2023-01-28T06:39:04;94647.31;;;0.12;100.00
16451;BME280;12243;42.708;23.310;2023-01-28T06:41:32;94641.59;;;0.07;100.00
16451;BME280;12243;42.708;23.310;2023-01-28T06:43:59;94652.22;;;0.16;100.00
16451;BME280;12243;42.708;23.310;2023-01-28T06:46:26;94655.31;;;0.23;100.00
16451;BME280;12243;42.708;23.310;2023-01-28T06:48:53;94661.34;;;0.39;100.00
16451;BME280;12243;42.708;23.310;2023-01-28T06:51:20;94657.84;;;0.40;100.00
16451;BME280;12243;42.708;23.310;2023-01-28T06:53:47;94663.28;;;0.34;100.00
16451;BME280;12243;42.708;23.310;2023-01-28T06:56:14;94662.41;;;0.18;100.00
16451;BME280;12243;42.708;23.310;2023-01-28T06:58:42;94672.84;;;0.13;100.00
16451;BME280;12243;42.708;23.310;2023-01-28T07:01:09;94665.31;;;0.10;100.00
16451;BME280;12243;42.708;23.310;2023-01-28T07:03:36;94665.97;;;0.14;100.00
16451;BME280;12243;42.708;23.310;2023-01-28T07:06:03;94672.63;;;0.18;100.00
16451;BME280;12243;42.708;23.310;2023-01-28T07:08:30;94672.03;;;0.30;100.00
16451;BME280;12243;42.708;23.310;2023-01-28T07:10:57;94682.25;;;0.30;100.00
16451;BME280;12243;42.708;23.310;2023-01-28T07:13:25;94682.25;;;0.30;100.00
16451;BME280;12243;42.708;23.310;2023-01-28T07:15:53;94685.59;;;0.32;100.00
16451;BME280;12243;42.708;23.310;2023-01-28T07:18:20;94686.56;;;0.30;100.00
16451;BME280;12243;42.708;23.310;2023-01-28T07:20:47;94687.25;;;0.33;100.00
16451;BME280;12243;42.708;23.310;2023-01-28T07:23:14;94688.88;;;0.34;100.00
16451;BME280;12243;42.708;23.310;2023-01-28T07:25:40;94692.97;;;0.21;100.00
16451;BME280;12243;42.708;23.310;2023-01-28T07:28:07;94696.81;;;0.30;100.00
16451;BME280;12243;42.708;23.310;2023-01-28T07:30:34;94705.84;;;0.37;100.00
16451;BME280;12243;42.708;23.310;2023-01-28T07:33:03;94704.25;;;0.34;100.00
16451;BME280;12243;42.708;23.310;2023-01-28T07:35:29;94702.47;;;0.36;100.00
16451;BME280;12243;42.708;23.310;2023-01-28T07:37:58;94713.09;;;0.46;100.00
16451;BME280;12243;42.708;23.310;2023-01-28T07:40:26;94711.41;;;0.45;100.00
16451;BME280;12243;42.708;23.310;2023-01-28T07:42:53;94718.91;;;0.50;100.00
16451;BME280;12243;42.708;23.310;2023-01-28T07:45:22;94716.63;;;0.61;100.00
16451;BME280;12243;42.708;23.310;2023-01-28T07:47:54;94718.56;;;0.73;99.46
16451;BME280;12243;42.708;23.310;2023-01-28T07:50:23;94722.88;;;0.73;99.42
16451;BME280;12243;42.708;23.310;2023-01-28T07:52:50;94722.66;;;0.77;99.49
16451;BME280;12243;42.708;23.310;2023-01-28T07:55:17;94731.03;;;0.63;98.74
16451;BME280;12243;42.708;23.310;2023-01-28T07:57:48;94727.63;;;0.63;99.29
16451;BME280;12243;42.708;23.310;2023-01-28T08:00:15;94732.44;;;0.69;99.22
16451;BME280;12243;42.708;23.310;2023-01-28T08:02:42;94732.28;;;0.72;99.38
16451;BME280;12243;42.708;23.310;2023-01-28T08:05:14;94728.50;;;0.79;99.04
16451;BME280;12243;42.708;23.310;2023-01-28T08:07:43;94736.19;;;0.79;97.87
16451;BME280;12243;42.708;23.310;2023-01-28T08:10:10;94735.69;;;0.73;98.72
16451;BME280;12243;42.708;23.310;2023-01-28T08:12:37;94739.59;;;0.80;98.70
16451;BME280;12243;42.708;23.310;2023-01-28T08:15:05;94739.81;;;0.92;99.01
16451;BME280;12243;42.708;23.310;2023-01-28T08:17:33;94740.88;;;0.88;97.48
16451;BME280;12243;42.708;23.310;2023-01-28T08:19:59;94738.56;;;0.84;97.62
16451;BME280;12243;42.708;23.310;2023-01-28T08:22:27;94745.34;;;0.85;97.99
16451;BME280;12243;42.708;23.310;2023-01-28T08:24:55;94752.25;;;0.83;97.97
16451;BME280;12243;42.708;23.310;2023-01-28T08:27:22;94754.00;;;0.82;98.38
16451;BME280;12243;42.708;23.310;2023-01-28T08:29:49;94750.16;;;0.91;97.69
16451;BME280;12243;42.708;23.310;2023-01-28T08:32:16;94757.22;;;0.86;97.65
16451;BME280;12243;42.708;23.310;2023-01-28T08:34:42;94746.00;;;0.88;98.18
16451;BME280;12243;42.708;23.310;2023-01-28T08:37:09;94747.34;;;0.95;97.73
16451;BME280;12243;42.708;23.310;2023-01-28T08:39:36;94745.69;;;1.12;97.50
16451;BME280;12243;42.708;23.310;2023-01-28T08:42:06;94749.13;;;1.11;96.30
16451;BME280;12243;42.708;23.310;2023-01-28T08:44:32;94747.56;;;1.08;96.43
16451;BME280;12243;42.708;23.310;2023-01-28T08:46:59;94749.59;;;1.19;96.49
16451;BME280;12243;42.708;23.310;2023-01-28T08:49:26;94750.78;;;1.29;96.59
16451;BME280;12243;42.708;23.310;2023-01-28T08:51:53;94751.50;;;1.31;95.73
16451;BME280;12243;42.708;23.310;2023-01-28T08:54:21;94755.31;;;1.24;95.57
16451;BME280;12243;42.708;23.310;2023-01-28T08:56:48;94754.44;;;1.41;95.55
16451;BME280;12243;42.708;23.310;2023-01-28T08:59:17;94753.09;;;1.50;95.27
16451;BME280;12243;42.708;23.310;2023-01-28T09:01:44;94759.75;;;1.54;94.70
16451;BME280;12243;42.708;23.310;2023-01-28T09:04:11;94765.63;;;1.56;94.49
16451;BME280;12243;42.708;23.310;2023-01-28T09:06:38;94758.13;;;1.69;94.85
16451;BME280;12243;42.708;23.310;2023-01-28T09:09:05;94763.81;;;1.74;95.42
16451;BME280;12243;42.708;23.310;2023-01-28T09:11:31;94770.19;;;1.51;93.86
16451;BME280;12243;42.708;23.310;2023-01-28T09:13:58;94765.06;;;1.51;95.01
16451;BME280;12243;42.708;23.310;2023-01-28T09:16:27;94768.34;;;1.53;95.06
16451;BME280;12243;42.708;23.310;2023-01-28T09:18:54;94765.28;;;1.46;95.12
16451;BME280;12243;42.708;23.310;2023-01-28T09:21:21;94765.78;;;1.37;95.61
16451;BME280;12243;42.708;23.310;2023-01-28T09:23:48;94768.94;;;1.25;96.07
16451;BME280;12243;42.708;23.310;2023-01-28T09:26:15;94765.72;;;1.21;97.26
16451;BME280;12243;42.708;23.310;2023-01-28T09:28:42;94766.66;;;1.36;97.08
16451;BME280;12243;42.708;23.310;2023-01-28T09:31:10;94760.38;;;1.26;95.92
16451;BME280;12243;42.708;23.310;2023-01-28T09:33:39;94759.84;;;1.19;96.57
16451;BME280;12243;42.708;23.310;2023-01-28T09:36:07;94756.09;;;1.09;97.51
16451;BME280;12243;42.708;23.310;2023-01-28T09:38:35;94757.16;;;1.05;97.57
16451;BME280;12243;42.708;23.310;2023-01-28T09:41:10;94748.25;;;1.12;97.89
16451;BME280;12243;42.708;23.310;2023-01-28T09:43:49;94761.66;;;1.17;97.62
16451;BME280;12243;42.708;23.310;2023-01-28T09:46:19;94758.66;;;1.09;98.37
16451;BME280;12243;42.708;23.310;2023-01-28T09:48:49;94755.94;;;1.12;98.26
16451;BME280;12243;42.708;23.310;2023-01-28T09:51:27;94761.28;;;1.07;98.03
16451;BME280;12243;42.708;23.310;2023-01-28T09:53:58;94763.03;;;1.07;98.49
16451;BME280;12243;42.708;23.310;2023-01-28T09:56:29;94761.28;;;1.07;99.39
16451;BME280;12243;42.708;23.310;2023-01-28T09:59:04;94756.53;;;1.17;100.00
16451;BME280;12243;42.708;23.310;2023-01-28T10:01:39;94763.59;;;1.29;99.75
16451;BME280;12243;42.708;23.310;2023-01-28T10:04:22;94759.63;;;1.39;100.00
16451;BME280;12243;42.708;23.310;2023-01-28T10:07:00;94758.47;;;1.29;99.00
16451;BME280;12243;42.708;23.310;2023-01-28T10:09:36;94757.19;;;1.21;99.19
16451;BME280;12243;42.708;23.310;2023-01-28T10:12:21;94760.69;;;1.35;99.03
16451;BME280;12243;42.708;23.310;2023-01-28T10:15:02;94747.56;;;1.41;98.60
16451;BME280;12243;42.708;23.310;2023-01-28T10:17:37;94755.41;;;1.38;98.46
16451;BME280;12243;42.708;23.310;2023-01-28T10:20:17;94754.06;;;1.31;99.58
16451;BME280;12243;42.708;23.310;2023-01-28T10:22:48;94756.53;;;1.17;98.85
16451;BME280;12243;42.708;23.310;2023-01-28T10:25:19;94756.81;;;1.11;99.55
16451;BME280;12243;42.708;23.310;2023-01-28T10:27:47;94758.31;;;1.15;99.78
16451;BME280;12243;42.708;23.310;2023-01-28T10:30:17;94753.88;;;1.18;99.84
16451;BME280;12243;42.708;23.310;2023-01-28T10:32:50;94757.19;;;1.21;99.53
16451;BME280;12243;42.708;23.310;2023-01-28T10:35:20;94758.13;;;1.35;99.33
16451;BME280;12243;42.708;23.310;2023-01-28T10:37:47;94761.88;;;1.46;99.21
16451;BME280;12243;42.708;23.310;2023-01-28T10:40:16;94747.19;;;1.65;100.00
16451;BME280;12243;42.708;23.310;2023-01-28T10:42:44;94751.00;;;1.89;100.00
16451;BME280;12243;42.708;23.310;2023-01-28T10:45:16;94750.34;;;1.86;98.58
16451;BME280;12243;42.708;23.310;2023-01-28T10:47:48;94749.00;;;1.95;96.88
16451;BME280;12243;42.708;23.310;2023-01-28T10:50:21;94745.03;;;1.73;96.54
16451;BME280;12243;42.708;23.310;2023-01-28T10:52:53;94746.88;;;1.71;97.25
16451;BME280;12243;42.708;23.310;2023-01-28T10:55:20;94748.19;;;1.78;97.45
16451;BME280;12243;42.708;23.310;2023-01-28T10:57:48;94749.91;;;1.62;97.34
16451;BME280;12243;42.708;23.310;2023-01-28T11:00:22;94742.38;;;1.59;97.82
16451;BME280;12243;42.708;23.310;2023-01-28T11:02:50;94744.78;;;1.62;97.97
16451;BME280;12243;42.708;23.310;2023-01-28T11:05:19;94747.03;;;1.84;99.35
16451;BME280;12243;42.708;23.310;2023-01-28T11:07:48;94747.84;;;1.84;97.54
16451;BME280;12243;42.708;23.310;2023-01-28T11:10:27;94750.16;;;2.05;96.18
16451;BME280;12243;42.708;23.310;2023-01-28T11:12:57;94748.19;;;2.10;95.36
16451;BME280;12243;42.708;23.310;2023-01-28T11:15:25;94741.22;;;2.12;94.98
16451;BME280;12243;42.708;23.310;2023-01-28T11:17:56;94746.09;;;2.32;95.36
16451;BME280;12243;42.708;23.310;2023-01-28T11:20:26;94746.91;;;2.33;93.78
16451;BME280;12243;42.708;23.310;2023-01-28T11:22:55;94751.50;;;2.12;93.83
16451;BME280;12243;42.708;23.310;2023-01-28T11:25:28;94741.25;;;1.96;94.38
16451;BME280;12243;42.708;23.310;2023-01-28T11:27:56;94751.66;;;2.09;94.09
16451;BME280;12243;42.708;23.310;2023-01-28T11:30:26;94749.25;;;2.22;94.07
16451;BME280;12243;42.708;23.310;2023-01-28T11:32:55;94737.75;;;2.13;94.07
16451;BME280;12243;42.708;23.310;2023-01-28T11:35:25;94743.44;;;2.18;93.59
16451;BME280;12243;42.708;23.310;2023-01-28T11:37:56;94741.56;;;2.06;93.90
16451;BME280;12243;42.708;23.310;2023-01-28T11:40:24;94740.38;;;2.11;94.59
16451;BME280;12243;42.708;23.310;2023-01-28T11:42:53;94735.59;;;2.21;94.34
16451;BME280;12243;42.708;23.310;2023-01-28T11:45:31;94732.25;;;2.19;93.34
16451;BME280;12243;42.708;23.310;2023-01-28T11:48:12;94730.13;;;2.11;93.37
16451;BME280;12243;42.708;23.310;2023-01-28T11:50:46;94733.84;;;2.22;93.08
16451;BME280;12243;42.708;23.310;2023-01-28T11:53:32;94724.28;;;2.39;92.47
16451;BME280;12243;42.708;23.310;2023-01-28T11:59:04;94721.91;;;2.51;91.81
16451;BME280;12243;42.708;23.310;2023-01-28T12:01:39;94725.72;;;2.59;91.66
16451;BME280;12243;42.708;23.310;2023-01-28T12:04:20;94726.56;;;2.74;91.98
16451;BME280;12243;42.708;23.310;2023-01-28T12:09:54;94733.97;;;2.65;89.85
16451;BME280;12243;42.708;23.310;2023-01-28T12:12:41;94735.69;;;2.50;89.75
16451;BME280;12243;42.708;23.310;2023-01-28T12:15:30;94731.91;;;2.41;89.76
16451;BME280;12243;42.708;23.310;2023-01-28T12:18:13;94736.56;;;2.34;90.33
16451;BME280;12243;42.708;23.310;2023-01-28T12:20:49;94729.56;;;2.36;90.42
16451;BME280;12243;42.708;23.310;2023-01-28T12:23:29;94740.72;;;2.21;90.89
16451;BME280;12243;42.708;23.310;2023-01-28T12:26:06;94735.47;;;2.23;91.13
16451;BME280;12243;42.708;23.310;2023-01-28T12:28:52;94736.59;;;2.03;91.61
16451;BME280;12243;42.708;23.310;2023-01-28T12:34:31;94737.00;;;2.11;92.63
16451;BME280;12243;42.708;23.310;2023-01-28T12:37:07;94735.59;;;2.21;92.29
16451;BME280;12243;42.708;23.310;2023-01-28T12:39:48;94740.88;;;2.18;92.45
16451;BME280;12243;42.708;23.310;2023-01-28T12:42:29;94744.03;;;2.07;92.86
16451;BME280;12243;42.708;23.310;2023-01-28T12:45:09;94749.03;;;2.10;92.31
16451;BME280;12243;42.708;23.310;2023-01-28T12:47:45;94737.09;;;1.94;93.02
16451;BME280;12243;42.708;23.310;2023-01-28T12:50:18;94750.59;;;2.13;93.22
16451;BME280;12243;42.708;23.310;2023-01-28T12:52:49;94756.63;;;2.12;92.62
16451;BME280;12243;42.708;23.310;2023-01-28T12:55:21;94760.13;;;2.27;93.27
16451;BME280;12243;42.708;23.310;2023-01-28T12:57:56;94758.22;;;2.30;92.33
16451;BME280;12243;42.708;23.310;2023-01-28T13:00:26;94759.25;;;2.26;92.27
16451;BME280;12243;42.708;23.310;2023-01-28T13:03:00;94760.78;;;2.14;92.30
16451;BME280;12243;42.708;23.310;2023-01-28T13:05:35;94755.63;;;2.14;92.81
16451;BME280;12243;42.708;23.310;2023-01-28T13:08:07;94763.09;;;2.19;93.04
16451;BME280;12243;42.708;23.310;2023-01-28T13:10:40;94761.34;;;2.20;92.00
16451;BME280;12243;42.708;23.310;2023-01-28T13:13:14;94772.03;;;2.12;92.23
16451;BME280;12243;42.708;23.310;2023-01-28T13:15:43;94775.03;;;2.20;92.07
16451;BME280;12243;42.708;23.310;2023-01-28T13:18:29;94776.34;;;2.27;91.10
16451;BME280;12243;42.708;23.310;2023-01-28T13:20:56;94778.00;;;2.28;91.24
16451;BME280;12243;42.708;23.310;2023-01-28T13:23:35;94776.69;;;2.21;91.04
16451;BME280;12243;42.708;23.310;2023-01-28T13:26:09;94772.38;;;2.22;91.47
16451;BME280;12243;42.708;23.310;2023-01-28T13:28:37;94771.72;;;2.18;91.26